PRÉPARATION DES VOLS

Pour bien préparer vos sorties, pensez à télécharger la fiche technique de votre avion, la check-list, le manuel de vol, le devis de centrage ou encore un modèle de Log de Nav.

Piper PA19 (F-BOFY)

 

Type : 2 places train classique

Moteur : Continental 90 cv.

Performances : 140 km/h

Robin DR 400 (F-BXRY)

Type : 2/3 places en instruction & entraînement (devis de centrage).

Moteur : Lycoming 4 cyl. à plat, 108 cv.

Performances : 180 km/h

Autonomie : 4 h soit environ 720 km franchissables.

Avionique : 1 radio com Bendix/King, 1 VOR, 1 transpondeur.

Robin DR 400 120 (F-GSBN)

Type : 3/4 places instruction, entraînement, voyage.

Moteur : Lycoming 4 cyl. à plat, 120 cv.

Performances : 190 km/h

Autonomie : 4 h soit environ 760 km franchissables.

Avionique : 1 radio com Bendix/King, 1 VOR, 1 transpondeur mode S, intercom 2 voies type.

 

Robin DR 400 120 (F-GNNY)

Type : 3/4 places instruction, entraînement, voyage.

Moteur : Lycoming 4 cyl. à plat, 120 cv.

Performances : 190 km/h

Autonomie : 4 h soit environ 760 km franchissables.

Avionique : 1 radio com Bendix/King, 1 VOR, 1 transpondeur mode S, intercom 2 voies type.

 

Robin DR 400 140 B (F-GHPJ)

Type : 4 places, pour entraînement et voyage.

Moteur : Robin Lycoming 4 cyl. à plat, 160 cv.

Performances : 206 km/h

Autonomie : 3 h 30 min soit environ 720 km de distance franchissable.

Avionique : 1 radio com Bendix/King, 1 VOR, 1 transpondeur mode S, intercom 4 voies.

 

Robin DR 400 180 (F-BVMP)

Type : 4 places pour le voyage.

Moteur : Lycoming 4 cyl. à plat, 180 cv.

Performances : 250 km/h

Autonomie : 4 h soit environ 1000 km franchissables.

Avionique : 1 radio 8.33, 1 transpondeur mode S et 1 Garmin GNS 430

 

Piper Archer II (PA 28) (F-GALA)

 


Sab’in Shoot, photographe à Villepreux

Type : 4 places, pour entraînement, voyage.

Moteur : Lycoming 4 cyl. à plat, 180 cv.

Performances : 220 km/h

Autonomie : 5 h30 soit environ 1200 km de distance franchissable.

Avionique : Radio intégrée au système GPS Garmin GNS 430, 2 VOR, 1 DME, 1 transpondeur mode S, pilote automatique 2 axes, intercom 4 voies et boite de mélange.

 

Télécharger l’aide mémoire de la radio GTR 225A

Télécharger l’aide mémoire de la radio GNC 255A

Télécharger un log de nav

Log 1

Cliquez sur le formulaire pour le télécharger

Log_1*Notice d’utilisation*

Ce Log de Nav a été optimisé pour rendre les calculs automatiques sous Excel. Indiquez simplement vos points de report, les altitudes et les distances en NM. La feuille calcule alors le temps sans vent pour chaque étape et donne le total, qu’elle convertit en heure-minutes. Elle calcule également la distance totale et la convertit en kilomètres. Enfin, elle affiche le résultat du devis carburant, calculé automatiquement par le 2ème feuillet. Vous pouvez également inscrire préalablement les fréquences Radio et Nav. Les autres cases sont à remplir pendant le vol : date, top départ, heure estimée (grisée), heure réelle,horamètre, Atis…
Bons vols à tous !
Guillaume

Log 2

Cliquez sur le formulaire pour le télécharger

Log_2

Log 3

 Cliquez sur le formulaire pour le télécharger

Log_3

L’alphabet Morse et l’alphabet international

Alphabet International

Nos coordonnées

Aéroclub Renault

Aérodrome de Chavenay

78450 Chavenay-Villepreux

telephone

Atis

Télécharger la VAC LFPX

Télécharger le calcul de centrage

Télécharger la feuille ATIS

Télécharger le mémo VFR 2019-2020

METARS / TAF de Toussus, Evreux, Orly et Roissy

Toussus

LFPN 121700Z AUTO /////KT 9999 VCTS ///CB 28/20 Q1010

TAF TAF AMD LFPN 132015Z 1320/1420 17005KT 5000 BKN025 TEMPO 1320/1324 2000 BR OVC008 PROB30 TEMPO 1320/1324 0800 FG OVC002

Evreux

LFOE 121700Z AUTO 21006KT 180V310 9999 -TSRA ///CB 22/20 Q1010 TEMPO VRB30G50KT 2000 TSRA

TAF TAF LFOE 121400Z 1215/1315 10010KT CAVOK TEMPO 1215/1222 VRB15G25KT 4000 SHRA BKN080CB PROB40 TEMPO 1215/1220 VRB20G35KT 2000 TSRA SCT040 BKN070CB PROB30 TEMPO 1217/1220 VRB30G50KT TSGR SCT020 BKN060CB BECMG 1300/1303 21008KT TEMPO 1304/1309 BKN004 BKN008

Orly

LFPO 121700Z 04006KT 360V060 9999 FEW073 SCT083CB 23/21 Q1010 RETS NOSIG

TAF LFPO 121100Z 1212/1318 08006KT CAVOK TEMPO 1214/1224 -SHRA SCT090CB PROB40 TEMPO 1215/1223 VRB20G40KT 2000 TSRA BKN070CB PROB30 TEMPO 1216/1220 TSGRRA BECMG 1300/1303 25006KT TEMPO 1311/1318 3000 SHRA SCT030CB PROB30 TEMPO 1313/1318 TSRA

Roissy

LFPG 121700Z 13011KT 9999 VCSH SCT073CB SCT130 BKN240 33/16 Q1010 TEMPO VRB15G35KT 1500 TSRAGR BKN070CB

TAF LFPG 121700Z 1218/1324 VRB05KT 9999 BKN060TCU TX28/1315Z TN20/1305Z TEMPO 1218/1304 TSRA SCT060CB PROB40 TEMPO 1218/1220 VRB15G35KT 1500 TSGR BKN060CB PROB30 TEMPO 1302/1304 4500 TSRA SCT060CB BECMG 1305/1307 20010KT TEMPO 1311/1321 SHRA SCT020CB PROB40 TEMPO 1313/1315 18015G30KT 4000 TSRA BECMG 1321/1323 BKN010

Share This